KMOB/MOB METAR and TAF weather

Enter ICAO airport designator
Station Type Date Time Source
KMOB METAR 2019/05/26 22:56 UTC NOAA

KMOB 262256Z 22006KT 10SM CLR 34/22 A3007 RMK AO2 SLP180 T03390222 $


Station Type Date Time Source
KMOB Decoded METAR 2019/05/26 22:56 UTC NOAA

MOBILE REGIONAL AIRPORT, AL, United States (KMOB) 30-41N 88-14W 67M
May 26, 2019 - 06:56 PM EDT / 2019.05.26 2256 UTC
Wind: from the SW (220 degrees) at 7 MPH (6 KT):0
Visibility: 10 mile(s):0
Sky conditions: clear
Temperature: 93.0 F (33.9 C)
Heat index: 100.8 F (38.2 C):1
Dew Point: 72.0 F (22.2 C)
Relative Humidity: 50%
Pressure (altimeter): 30.07 in. Hg (1018 hPa)
ob: KMOB 262256Z 22006KT 10SM CLR 34/22 A3007 RMK AO2 SLP180 T03390222
cycle: 23

Station Type Date Time Source
KMOB TAF 2019/05/26 18:30 UTC NOAA

TAF KMOB 261727Z 2618/2718 17008KT P6SM FEW040
FM270200 VRB02KT P6SM SKC
FM271500 19005KT P6SM SCT250

Example: see airport list